createdAt,value
2019-03-16T00:01:12.597Z,74.91
2019-03-16T00:03:42.718Z,74.44
2019-03-16T00:06:14.858Z,74.00
2019-03-16T00:08:46.711Z,74.20
2019-03-16T00:11:18.693Z,73.40
2019-03-16T00:13:50.478Z,72.30
2019-03-16T00:16:22.357Z,70.90
2019-03-16T00:18:54.179Z,70.85
2019-03-16T00:21:25.987Z,70.49
2019-03-16T00:23:57.833Z,69.64
2019-03-16T00:26:29.681Z,69.71
2019-03-16T00:29:01.597Z,69.96
2019-03-16T00:31:33.437Z,70.52
2019-03-16T00:34:05.393Z,69.31
2019-03-16T00:36:37.560Z,69.25
2019-03-16T00:39:10.696Z,69.39
2019-03-16T00:41:42.502Z,69.92
2019-03-16T00:44:14.368Z,70.21
2019-03-16T00:46:46.191Z,70.38
2019-03-16T00:49:18.012Z,70.40
2019-03-16T00:51:50.092Z,69.60
2019-03-16T00:54:21.974Z,70.05
2019-03-16T00:56:53.816Z,70.09
2019-03-16T00:59:25.664Z,69.71
2019-03-16T01:01:57.544Z,70.11
2019-03-16T01:04:29.364Z,70.28
2019-03-16T01:07:01.462Z,70.61
2019-03-16T01:09:33.275Z,70.40
2019-03-16T01:12:05.162Z,70.26
2019-03-16T01:14:36.961Z,70.86
2019-03-16T01:17:08.814Z,71.19
2019-03-16T01:19:40.660Z,71.73
2019-03-16T01:22:12.840Z,72.03
2019-03-16T01:24:44.676Z,72.45
2019-03-16T01:27:16.703Z,71.86
2019-03-16T01:29:48.749Z,71.55
2019-03-16T01:32:20.554Z,71.48
2019-03-16T01:34:52.465Z,70.75
2019-03-16T01:37:24.486Z,70.23
2019-03-16T01:39:56.335Z,70.49
2019-03-16T01:42:28.355Z,70.03
2019-03-16T01:45:00.478Z,69.49
2019-03-16T01:47:32.534Z,68.82
2019-03-16T01:50:04.854Z,67.96
2019-03-16T01:52:36.640Z,67.86
2019-03-16T01:55:08.745Z,66.47
2019-03-16T01:57:40.559Z,66.76
2019-03-16T02:00:13.068Z,66.01
2019-03-16T02:02:55.027Z,64.51
2019-03-16T02:05:18.822Z,65.09
2019-03-16T02:07:50.915Z,64.48
2019-03-16T02:10:22.714Z,63.16
2019-03-16T02:12:54.541Z,64.03
2019-03-16T02:15:26.343Z,63.20
2019-03-16T02:17:58.359Z,62.10
2019-03-16T02:20:30.441Z,61.57
2019-03-16T02:23:03.839Z,60.81
2019-03-16T02:25:35.664Z,59.62
2019-03-16T02:28:07.515Z,60.66
2019-03-16T02:30:39.432Z,59.42
2019-03-16T02:33:13.647Z,59.62
2019-03-16T02:35:44.721Z,58.79
2019-03-16T02:38:16.836Z,58.52
2019-03-16T02:40:48.785Z,58.78
2019-03-16T02:43:21.730Z,58.68
2019-03-16T02:45:53.567Z,59.17
2019-03-16T02:48:25.397Z,59.50
2019-03-16T02:50:57.248Z,59.96
2019-03-16T02:53:29.505Z,60.11
2019-03-16T02:56:01.372Z,60.65
2019-03-16T02:58:33.180Z,60.54
2019-03-16T03:01:04.994Z,60.86
2019-03-16T03:03:37.116Z,59.22
2019-03-16T03:06:08.941Z,59.16
2019-03-16T03:08:41.220Z,58.25
2019-03-16T03:11:13.041Z,58.52
2019-03-16T03:13:44.907Z,58.28
2019-03-16T03:16:17.646Z,58.18
2019-03-16T03:18:50.067Z,58.37
2019-03-16T03:21:22.316Z,58.79
2019-03-16T03:23:54.510Z,58.57
2019-03-16T03:26:27.657Z,59.02
2019-03-16T03:28:59.623Z,59.10
2019-03-16T03:31:31.508Z,59.05
2019-03-16T03:34:03.377Z,58.90
2019-03-16T03:36:35.178Z,59.54
2019-03-16T03:39:08.946Z,59.59
2019-03-16T03:41:40.746Z,59.54
2019-03-16T03:44:12.563Z,59.39
2019-03-16T03:46:44.510Z,58.94
2019-03-16T03:49:16.346Z,58.97
2019-03-16T03:51:48.153Z,59.14
2019-03-16T03:54:20.370Z,59.92
2019-03-16T03:56:52.183Z,59.75
2019-03-16T03:59:24.049Z,59.62
2019-03-16T04:01:57.029Z,59.68
2019-03-16T04:04:29.170Z,60.09
2019-03-16T04:07:00.998Z,60.52
2019-03-16T04:09:33.122Z,61.09
2019-03-16T04:12:04.940Z,60.45
2019-03-16T04:14:36.786Z,60.39
2019-03-16T04:17:08.649Z,60.12
2019-03-16T04:19:40.538Z,60.11
2019-03-16T04:22:12.366Z,59.87
2019-03-16T04:24:45.601Z,60.15
2019-03-16T04:27:17.482Z,60.35
2019-03-16T04:29:49.340Z,59.62
2019-03-16T04:32:21.152Z,60.25
2019-03-16T04:34:52.978Z,60.21
2019-03-16T04:37:25.034Z,59.81
2019-03-16T04:39:57.158Z,59.67
2019-03-16T04:42:28.969Z,59.90
2019-03-16T04:45:01.918Z,60.68
2019-03-16T04:47:33.734Z,61.43
2019-03-16T04:50:06.242Z,62.32
2019-03-16T04:52:39.032Z,62.60
2019-03-16T04:55:11.144Z,63.55
2019-03-16T04:57:42.950Z,64.25
2019-03-16T05:00:15.125Z,65.27
2019-03-16T05:02:46.936Z,64.65
2019-03-16T05:05:19.281Z,64.29
2019-03-16T05:07:51.063Z,64.33
2019-03-16T05:10:23.147Z,64.67
2019-03-16T05:12:55.024Z,65.48
2019-03-16T05:15:26.804Z,65.36
2019-03-16T05:17:58.697Z,64.88
2019-03-16T05:20:30.620Z,65.41
2019-03-16T05:23:02.735Z,65.52
2019-03-16T05:25:34.992Z,66.30
2019-03-16T05:28:06.806Z,66.78
2019-03-16T05:30:38.627Z,68.41
2019-03-16T05:33:10.530Z,68.82
2019-03-16T05:35:42.381Z,70.54
2019-03-16T05:38:14.213Z,70.09
2019-03-16T05:40:46.424Z,69.61
2019-03-16T05:43:18.292Z,69.18
2019-03-16T05:45:50.122Z,69.22
2019-03-16T05:48:21.996Z,69.53
2019-03-16T05:50:53.831Z,69.21
2019-03-16T05:53:25.731Z,68.89
2019-03-16T05:55:57.683Z,68.49
2019-03-16T05:58:29.559Z,68.47
2019-03-16T06:01:01.412Z,68.32
2019-03-16T06:03:33.198Z,68.39
2019-03-16T06:06:05.464Z,68.34
2019-03-16T06:08:37.302Z,68.67
2019-03-16T06:11:09.468Z,68.73
2019-03-16T06:13:41.300Z,68.79
2019-03-16T06:16:13.111Z,68.61
2019-03-16T06:18:44.994Z,69.17
2019-03-16T06:21:16.887Z,69.39
2019-03-16T06:23:48.728Z,69.59
2019-03-16T06:26:20.548Z,69.46
2019-03-16T06:28:52.413Z,69.11
2019-03-16T06:31:24.231Z,68.75
2019-03-16T06:33:56.085Z,68.79
2019-03-16T06:36:27.889Z,68.66
2019-03-16T06:38:59.722Z,68.66
2019-03-16T06:41:32.163Z,68.05
2019-03-16T06:44:04.032Z,67.24
2019-03-16T06:46:35.826Z,67.66
2019-03-16T06:49:08.863Z,67.31
2019-03-16T06:51:40.675Z,67.93
2019-03-16T06:54:12.593Z,67.70
2019-03-16T06:56:44.569Z,67.33
2019-03-16T06:59:16.472Z,67.74
2019-03-16T07:01:48.288Z,67.92
2019-03-16T07:04:20.183Z,67.91
2019-03-16T07:06:52.530Z,67.89
2019-03-16T07:09:24.424Z,68.79
2019-03-16T07:11:56.609Z,69.66
2019-03-16T07:14:28.491Z,70.12
2019-03-16T07:17:02.438Z,70.86
2019-03-16T07:19:34.073Z,70.69
2019-03-16T07:22:06.111Z,70.37
2019-03-16T07:24:37.968Z,70.70
2019-03-16T07:27:10.022Z,69.87
2019-03-16T07:29:41.866Z,70.42
2019-03-16T07:32:13.712Z,70.06
2019-03-16T07:34:45.622Z,69.65
2019-03-16T07:37:17.461Z,69.58
2019-03-16T07:39:49.452Z,69.84
2019-03-16T07:42:21.515Z,70.02
2019-03-16T07:44:53.346Z,69.85
2019-03-16T07:47:25.203Z,69.51
2019-03-16T07:49:57.051Z,69.09
2019-03-16T07:52:28.956Z,68.61
2019-03-16T07:55:00.749Z,69.15
2019-03-16T07:57:40.054Z,68.43
2019-03-16T08:00:06.777Z,68.46
2019-03-16T08:02:38.665Z,68.50
2019-03-16T08:05:18.104Z,68.62
2019-03-16T08:07:45.485Z,68.45
2019-03-16T08:10:17.351Z,68.80
2019-03-16T08:12:49.362Z,68.71
2019-03-16T08:15:21.262Z,68.68
2019-03-16T08:17:53.239Z,68.58
2019-03-16T08:20:25.117Z,68.40
2019-03-16T08:22:57.113Z,68.98
2019-03-16T08:25:29.140Z,68.90
2019-03-16T08:28:01.628Z,68.94
2019-03-16T08:30:33.574Z,68.90
2019-03-16T08:33:05.466Z,68.19
2019-03-16T08:35:38.367Z,68.12
2019-03-16T08:38:10.337Z,68.64
2019-03-16T08:40:42.238Z,68.97
2019-03-16T08:43:14.297Z,68.97
2019-03-16T08:45:46.117Z,68.97
2019-03-16T08:48:23.137Z,68.99
2019-03-16T08:50:51.764Z,69.49
2019-03-16T08:53:23.747Z,69.50
2019-03-16T08:55:55.618Z,69.21
2019-03-16T08:58:28.272Z,69.28
2019-03-16T09:01:00.161Z,68.84
2019-03-16T09:03:43.027Z,69.06
2019-03-16T09:06:05.562Z,68.78
2019-03-16T09:08:37.606Z,68.78
2019-03-16T09:11:09.492Z,68.81
2019-03-16T09:13:41.433Z,68.65
2019-03-16T09:16:13.251Z,68.49
2019-03-16T09:18:45.333Z,68.15
2019-03-16T09:21:17.143Z,68.40
2019-03-16T09:23:49.015Z,68.60
2019-03-16T09:26:20.875Z,68.46
2019-03-16T09:29:00.102Z,68.18
2019-03-16T09:31:26.599Z,69.60
2019-03-16T09:33:58.449Z,68.05
2019-03-16T09:36:30.344Z,68.82
2019-03-16T09:39:02.240Z,68.71
2019-03-16T09:41:34.173Z,67.81
2019-03-16T09:44:06.653Z,67.28
2019-03-16T09:46:38.620Z,66.89
2019-03-16T09:49:10.558Z,66.25
2019-03-16T09:51:42.807Z,66.32
2019-03-16T09:54:14.666Z,66.10
2019-03-16T09:56:46.825Z,65.62
2019-03-16T09:59:18.891Z,65.36
2019-03-16T10:01:50.719Z,65.33
2019-03-16T10:04:22.609Z,64.91
2019-03-16T10:06:54.880Z,64.48
2019-03-16T10:09:27.089Z,64.76
2019-03-16T10:11:59.041Z,64.79
2019-03-16T10:14:30.928Z,65.21
2019-03-16T10:17:03.006Z,65.42
2019-03-16T10:19:34.876Z,65.41
2019-03-16T10:22:06.807Z,65.46
2019-03-16T10:24:38.663Z,65.79
2019-03-16T10:27:10.553Z,65.71
2019-03-16T10:29:42.390Z,65.13
2019-03-16T10:32:14.299Z,64.87
2019-03-16T10:34:46.384Z,64.58
2019-03-16T10:37:18.408Z,64.27
2019-03-16T10:39:50.297Z,63.97
2019-03-16T10:42:22.461Z,64.10
2019-03-16T10:44:54.681Z,63.59
2019-03-16T10:47:26.695Z,64.19
2019-03-16T10:49:58.784Z,63.55
2019-03-16T10:52:30.927Z,63.29
2019-03-16T10:55:02.866Z,63.16
2019-03-16T10:57:34.970Z,63.51
2019-03-16T11:00:07.904Z,63.25
2019-03-16T11:02:39.843Z,62.97
2019-03-16T11:05:12.221Z,62.32
2019-03-16T11:07:44.260Z,62.62
2019-03-16T11:10:16.685Z,61.98
2019-03-16T11:12:48.736Z,62.49
2019-03-16T11:15:20.701Z,62.52
2019-03-16T11:17:52.737Z,62.46
2019-03-16T11:20:24.609Z,63.07
2019-03-16T11:22:56.454Z,62.69
2019-03-16T11:25:28.929Z,62.23
2019-03-16T11:28:01.049Z,61.62
2019-03-16T11:30:33.739Z,61.79
2019-03-16T11:33:06.141Z,61.56
2019-03-16T11:35:38.333Z,60.96
2019-03-16T11:38:10.344Z,61.25
2019-03-16T11:40:42.330Z,60.48
2019-03-16T11:43:14.307Z,60.27
2019-03-16T11:45:46.498Z,60.40
2019-03-16T11:48:18.508Z,60.00
2019-03-16T11:50:50.592Z,60.12
2019-03-16T11:53:22.542Z,59.30
2019-03-16T11:55:54.675Z,58.71
2019-03-16T11:58:27.090Z,57.64
2019-03-16T12:00:59.066Z,56.65
2019-03-16T12:03:31.027Z,56.20
2019-03-16T12:06:02.998Z,55.66
2019-03-16T12:08:34.951Z,55.93
2019-03-16T12:11:07.101Z,56.87
2019-03-16T12:13:38.976Z,57.05
2019-03-16T12:16:11.177Z,58.01
2019-03-16T12:18:43.028Z,58.17
2019-03-16T12:21:14.986Z,58.08
2019-03-16T12:23:46.959Z,57.46
2019-03-16T12:26:20.216Z,57.61
2019-03-16T12:28:53.365Z,57.23
2019-03-16T12:31:25.468Z,56.87
2019-03-16T12:33:57.450Z,56.47
2019-03-16T12:36:29.347Z,55.36
2019-03-16T12:39:01.278Z,54.32
2019-03-16T12:41:34.113Z,54.77
2019-03-16T12:44:06.036Z,54.25
2019-03-16T12:46:38.268Z,53.89
2019-03-16T12:49:10.220Z,53.52
2019-03-16T12:51:42.111Z,54.12
2019-03-16T12:54:14.131Z,53.76
2019-03-16T12:56:46.087Z,53.19
2019-03-16T12:59:17.962Z,53.25
2019-03-16T13:01:49.855Z,53.81
2019-03-16T13:04:21.746Z,53.92
2019-03-16T13:06:54.962Z,55.18
2019-03-16T13:09:26.808Z,54.69
2019-03-16T13:11:58.884Z,53.85
2019-03-16T13:14:30.731Z,52.41
2019-03-16T13:17:02.812Z,51.51
2019-03-16T13:19:34.827Z,50.53
2019-03-16T13:22:06.744Z,47.25
2019-03-16T13:24:38.637Z,47.49
2019-03-16T13:27:10.538Z,48.39
2019-03-16T13:29:42.653Z,48.70
2019-03-16T13:32:15.082Z,50.21
2019-03-16T13:34:46.937Z,51.35
2019-03-16T13:37:18.786Z,51.98
2019-03-16T13:39:50.801Z,52.90
2019-03-16T13:42:22.656Z,53.51
2019-03-16T13:44:54.509Z,53.97
2019-03-16T13:47:26.806Z,53.71
2019-03-16T13:49:58.714Z,53.82
2019-03-16T13:52:30.681Z,54.19
2019-03-16T13:55:02.533Z,54.32
2019-03-16T13:57:34.603Z,55.55
2019-03-16T14:00:12.176Z,53.24
2019-03-16T14:02:41.912Z,48.83
2019-03-16T14:05:14.016Z,43.91
2019-03-16T14:07:46.136Z,38.63
2019-03-16T14:10:18.952Z,31.94
2019-03-16T14:12:50.975Z,34.99
2019-03-16T14:15:22.875Z,39.72
2019-03-16T14:17:57.848Z,36.29
2019-03-16T14:20:28.925Z,38.08
2019-03-16T14:23:00.955Z,42.15
2019-03-16T14:25:32.847Z,45.32
2019-03-16T14:28:05.006Z,48.11
2019-03-16T14:30:41.759Z,49.87
2019-03-16T14:33:10.546Z,52.31
2019-03-16T14:35:42.678Z,54.28
2019-03-16T14:38:14.706Z,51.41
2019-03-16T14:40:46.812Z,48.62
2019-03-16T14:43:18.956Z,47.98
2019-03-16T14:45:50.847Z,49.76
2019-03-16T14:48:23.795Z,51.82
2019-03-16T14:50:55.931Z,53.76
2019-03-16T14:53:27.860Z,54.71
2019-03-16T14:55:59.956Z,54.79
2019-03-16T14:58:31.830Z,54.86
2019-03-16T15:01:03.787Z,56.19
2019-03-16T15:03:35.799Z,56.86
2019-03-16T15:06:08.017Z,57.31
2019-03-16T15:08:40.144Z,57.57
2019-03-16T15:11:12.115Z,57.48
2019-03-16T15:13:44.358Z,57.56
2019-03-16T15:16:16.359Z,57.67
2019-03-16T15:18:48.466Z,58.11
2019-03-16T15:21:20.550Z,58.93
2019-03-16T15:23:53.792Z,58.56
2019-03-16T15:26:25.931Z,59.34
2019-03-16T15:28:57.934Z,59.05
2019-03-16T15:31:30.005Z,59.72
2019-03-16T15:34:02.306Z,60.56
2019-03-16T15:36:34.372Z,62.17
2019-03-16T15:39:09.378Z,62.29
2019-03-16T15:41:41.676Z,63.08
2019-03-16T15:44:13.877Z,62.97
2019-03-16T15:46:46.013Z,62.95
2019-03-16T15:49:19.909Z,63.29
2019-03-16T15:51:52.212Z,63.36
2019-03-16T15:54:24.246Z,63.54
2019-03-16T15:56:56.358Z,63.74
2019-03-16T15:59:28.554Z,63.96
2019-03-16T16:02:01.138Z,64.07
2019-03-16T16:04:35.095Z,64.01
2019-03-16T16:07:07.807Z,64.22
2019-03-16T16:09:40.089Z,64.34
2019-03-16T16:12:12.278Z,64.50
2019-03-16T16:14:44.892Z,63.75
2019-03-16T16:17:16.969Z,63.55
2019-03-16T16:19:49.194Z,63.65
2019-03-16T16:22:21.370Z,63.34
2019-03-16T16:24:53.833Z,61.86
2019-03-16T16:27:25.941Z,61.06
2019-03-16T16:29:58.074Z,59.81
2019-03-16T16:32:30.315Z,59.59
2019-03-16T16:35:02.757Z,59.48
2019-03-16T16:37:35.046Z,59.31
2019-03-16T16:40:09.532Z,59.36
2019-03-16T16:42:42.326Z,59.61
2019-03-16T16:45:15.147Z,59.59
2019-03-16T16:47:48.417Z,59.63
2019-03-16T16:50:21.583Z,59.85
2019-03-16T16:52:56.044Z,59.76
2019-03-16T16:55:29.580Z,60.22
2019-03-16T16:58:03.852Z,60.00
2019-03-16T17:00:36.822Z,59.82
2019-03-16T17:03:09.470Z,59.85
2019-03-16T17:05:43.505Z,59.86
2019-03-16T17:08:17.826Z,59.65
2019-03-16T17:10:50.547Z,58.97
2019-03-16T17:13:23.544Z,58.53
2019-03-16T17:15:56.140Z,58.63
2019-03-16T17:18:29.050Z,58.75
2019-03-16T17:21:02.212Z,58.57
2019-03-16T17:23:35.327Z,58.48
2019-03-16T17:26:07.985Z,58.63
2019-03-16T17:28:40.686Z,58.38
2019-03-16T17:31:15.431Z,58.62
2019-03-16T17:33:48.495Z,58.40
2019-03-16T17:36:22.359Z,58.09
2019-03-16T17:38:55.616Z,57.75
2019-03-16T17:41:29.197Z,58.15
2019-03-16T17:44:01.748Z,58.02
2019-03-16T17:46:34.543Z,57.89
2019-03-16T17:49:07.209Z,57.95
2019-03-16T17:51:40.154Z,58.11
2019-03-16T17:54:12.817Z,57.27
2019-03-16T17:56:45.543Z,58.02
2019-03-16T17:59:18.965Z,58.29
2019-03-16T18:01:55.034Z,58.67
2019-03-16T18:04:27.697Z,58.57
2019-03-16T18:06:58.808Z,58.44
2019-03-16T18:09:31.581Z,58.48
2019-03-16T18:12:04.441Z,58.52
2019-03-16T18:14:37.106Z,58.77
2019-03-16T18:17:09.973Z,58.70
2019-03-16T18:19:42.604Z,58.89
2019-03-16T18:22:15.282Z,59.14
2019-03-16T18:24:49.423Z,59.30
2019-03-16T18:27:22.126Z,59.63
2019-03-16T18:29:55.200Z,59.73
2019-03-16T18:32:28.205Z,59.69
2019-03-16T18:35:01.083Z,59.59
2019-03-16T18:37:34.001Z,59.70
2019-03-16T18:40:08.230Z,59.40
2019-03-16T18:42:41.116Z,59.42
2019-03-16T18:45:16.611Z,59.29
2019-03-16T18:47:49.739Z,59.41
2019-03-16T18:50:23.250Z,59.55
2019-03-16T18:52:57.030Z,59.62
2019-03-16T18:55:30.122Z,59.55
2019-03-16T18:58:03.520Z,59.56
2019-03-16T19:00:36.177Z,59.55
2019-03-16T19:03:11.681Z,59.68
2019-03-16T19:05:43.506Z,59.63
2019-03-16T19:08:16.727Z,59.67
2019-03-16T19:10:49.648Z,59.76
2019-03-16T19:13:22.773Z,59.78
2019-03-16T19:15:55.695Z,59.88
2019-03-16T19:18:28.570Z,60.04
2019-03-16T19:21:01.513Z,60.10
2019-03-16T19:23:34.820Z,60.11
2019-03-16T19:26:07.921Z,59.99
2019-03-16T19:28:40.984Z,59.94
2019-03-16T19:31:13.763Z,60.16
2019-03-16T19:33:46.497Z,60.25
2019-03-16T19:36:19.338Z,60.34
2019-03-16T19:38:52.372Z,60.33
2019-03-16T19:41:25.107Z,60.46
2019-03-16T19:43:58.554Z,60.40
2019-03-16T19:46:30.954Z,60.44
2019-03-16T19:49:03.491Z,60.48
2019-03-16T19:51:36.385Z,60.47
2019-03-16T19:54:21.040Z,60.66
2019-03-16T19:56:54.036Z,60.94
2019-03-16T19:59:26.907Z,60.98
2019-03-16T20:01:59.904Z,61.07
2019-03-16T20:04:36.286Z,61.18
2019-03-16T20:07:18.776Z,61.23
2019-03-16T20:09:42.091Z,61.32
2019-03-16T20:12:16.338Z,61.35
2019-03-16T20:14:49.655Z,61.38
2019-03-16T20:17:23.370Z,61.46
2019-03-16T20:19:56.728Z,61.74
2019-03-16T20:22:29.610Z,61.73
2019-03-16T20:25:03.135Z,61.94
2019-03-16T20:27:36.146Z,62.18
2019-03-16T20:30:10.291Z,62.46
2019-03-16T20:32:43.256Z,62.93
2019-03-16T20:35:16.048Z,63.20
2019-03-16T20:37:48.962Z,63.28
2019-03-16T20:40:23.258Z,63.11
2019-03-16T20:42:56.088Z,63.18
2019-03-16T20:45:29.124Z,62.79
2019-03-16T20:48:02.256Z,62.91
2019-03-16T20:50:35.323Z,62.84
2019-03-16T20:53:08.262Z,62.90
2019-03-16T20:55:41.940Z,62.89
2019-03-16T20:58:15.162Z,63.06
2019-03-16T21:00:48.526Z,63.13
2019-03-16T21:03:21.237Z,63.25
2019-03-16T21:05:54.594Z,63.33
2019-03-16T21:08:27.561Z,63.30
2019-03-16T21:11:00.744Z,63.33
2019-03-16T21:13:33.558Z,63.63
2019-03-16T21:16:06.489Z,63.55
2019-03-16T21:18:39.377Z,63.46
2019-03-16T21:21:12.712Z,63.48
2019-03-16T21:23:45.684Z,63.51
2019-03-16T21:26:19.011Z,63.65
2019-03-16T21:28:51.725Z,63.59
2019-03-16T21:31:24.541Z,63.79
2019-03-16T21:33:57.292Z,63.62
2019-03-16T21:36:41.021Z,63.40
2019-03-16T21:39:05.975Z,63.43
2019-03-16T21:41:39.187Z,63.39
2019-03-16T21:44:12.084Z,63.47
2019-03-16T21:46:44.842Z,63.43
2019-03-16T21:49:17.725Z,63.34
2019-03-16T21:51:50.674Z,63.20
2019-03-16T21:54:23.218Z,63.33
2019-03-16T21:56:56.931Z,63.29
2019-03-16T21:59:29.658Z,63.31
2019-03-16T22:02:02.672Z,63.47
2019-03-16T22:04:35.125Z,63.22
2019-03-16T22:07:08.209Z,63.24
2019-03-16T22:09:40.622Z,63.16
2019-03-16T22:12:13.259Z,63.07
2019-03-16T22:14:45.627Z,62.97
2019-03-16T22:17:17.726Z,62.93
2019-03-16T22:19:49.685Z,62.90
2019-03-16T22:22:21.795Z,62.80
2019-03-16T22:24:53.711Z,62.78
2019-03-16T22:27:25.909Z,62.66
2019-03-16T22:29:57.922Z,62.58
2019-03-16T22:32:29.961Z,62.53
2019-03-16T22:35:02.162Z,62.58
2019-03-16T22:37:34.206Z,62.64
2019-03-16T22:40:06.912Z,62.42
2019-03-16T22:42:39.178Z,62.57
2019-03-16T22:45:12.131Z,62.47
2019-03-16T22:47:45.316Z,62.37
2019-03-16T22:50:18.225Z,62.47
2019-03-16T22:52:50.458Z,62.48
2019-03-16T22:55:23.941Z,62.49
2019-03-16T22:57:56.409Z,62.63
2019-03-16T23:00:39.036Z,62.75
2019-03-16T23:03:11.800Z,62.90
2019-03-16T23:05:44.294Z,63.17
2019-03-16T23:08:16.525Z,63.34
2019-03-16T23:10:48.575Z,63.81
2019-03-16T23:13:20.787Z,64.08
2019-03-16T23:15:53.208Z,64.20
2019-03-16T23:18:25.470Z,64.56
2019-03-16T23:20:57.563Z,65.28
2019-03-16T23:23:29.641Z,64.99
2019-03-16T23:26:01.592Z,65.09
2019-03-16T23:28:34.075Z,65.37
2019-03-16T23:31:06.825Z,65.10
2019-03-16T23:33:38.915Z,65.06
2019-03-16T23:36:10.945Z,65.07
2019-03-16T23:38:42.893Z,65.59
2019-03-16T23:41:15.198Z,65.64
2019-03-16T23:43:47.144Z,65.50
2019-03-16T23:46:19.075Z,65.47
2019-03-16T23:48:51.002Z,65.39
2019-03-16T23:51:22.999Z,65.16
2019-03-16T23:53:54.870Z,65.19
2019-03-16T23:56:26.991Z,65.29
2019-03-16T23:58:59.124Z,65.45
